De Sui — BSFU — position and weather

sailwx.info

Track history (hours):
 
Tides and Currents Weather Stations Pressure Air Temp Water Temp Dewpoint Dewpoint Depression Visibility Wind Speed Wind Dir Waves Ship Positions

De Sui

Last reported at 2015-Jan-19 08:33 UTC. Time now 2015-Jan-31 13:09 UTC.
Position N 22°06' E 113°49'.
Warning: this ship's position is 12 days out of date.

Length 65 m; draft 5 m.

Type: Tug. MMSI: 413070000.

Date/timePositionNaut miles runAvg speedWind from/ knotsBaromVisibWave heightAir tempDewpointWater temp
2015-Jan-19 08:33N 22°06' E 113°49'3 2.7
2015-Jan-19 07:33N 22°08' E 113°47'0 0.1
2015-Jan-19 06:32N 22°08' E 113°47'1 1.2
2015-Jan-19 05:32N 22°08' E 113°49'0 0.1
2015-Jan-19 04:33N 22°08' E 113°49'0 0.0
2015-Jan-19 03:33N 22°08' E 113°49'0 0.0
2015-Jan-19 02:34N 22°08' E 113°49'1 1.1
2015-Jan-19 01:30N 22°08' E 113°47'1 0.1
2015-Jan-18 16:33N 22°08' E 113°49'0 0.0
2015-Jan-18 15:33N 22°08' E 113°49'0 0.0
2015-Jan-18 14:33N 22°08' E 113°49'0 0.0
2015-Jan-18 13:33N 22°08' E 113°49'0 0.0
2015-Jan-18 12:32N 22°08' E 113°49'0 0.0
2015-Jan-18 11:32N 22°08' E 113°49'0 0.0
2015-Jan-18 10:32N 22°08' E 113°49'0 0.1
2015-Jan-18 09:33N 22°08' E 113°49'0 0.1
2015-Jan-18 08:33N 22°08' E 113°49'0 0.0
2015-Jan-18 07:30N 22°08' E 113°49'0 0.1
2015-Jan-18 06:33N 22°08' E 113°49'0 0.1
2015-Jan-18 05:33N 22°08' E 113°49'0 0.0
2015-Jan-18 04:33N 22°08' E 113°49'0 0.0
2015-Jan-18 03:33N 22°08' E 113°49'0 0.0
2015-Jan-18 02:33N 22°08' E 113°49'0 0.0
2015-Jan-18 01:32N 22°08' E 113°49'1 1.1
2015-Jan-18 00:33N 22°08' E 113°47'3 3.3
2015-Jan-17 23:32N 22°05' E 113°50'3 2.8
2015-Jan-17 22:33N 22°03' E 113°51'3 2.5
2015-Jan-17 21:18N 21°59' E 113°51'1 1.8
2015-Jan-17 20:33N 21°58' E 113°51'167 3.3
2015-Jan-15 18:33N 22°57' E 116°41'5 5.1
2015-Jan-15 17:33N 22°59' E 116°45'6 5.3
2015-Jan-15 16:29N 23°02' E 116°51'5 5.5
2015-Jan-15 15:30N 23°04' E 116°56'47 4.6
2015-Jan-15 05:23N 23°29' E 117°40'4 5.1
2015-Jan-15 04:30N 23°32' E 117°43'5 5.6
2015-Jan-15 03:33N 23°36' E 117°46'6 5.7
2015-Jan-15 02:33N 23°41' E 117°50'6 5.5
2015-Jan-15 01:32N 23°45' E 117°54'5 5.3
2015-Jan-15 00:33N 23°49' E 117°57'6 5.8
2015-Jan-14 23:33N 23°54' E 118°02'6 5.6
2015-Jan-14 22:33N 23°58' E 118°06'5 5.2
2015-Jan-14 21:33N 24°01' E 118°10'5 4.8
2015-Jan-14 20:33N 24°05' E 118°14'5 4.6
2015-Jan-14 19:33N 24°07' E 118°18'4 4.4
2015-Jan-14 18:33N 24°10' E 118°22'4 3.9
2015-Jan-14 17:32N 24°13' E 118°25'5 3.9
2015-Jan-14 16:21N 24°16' E 118°28'4 4.2
2015-Jan-14 15:24N 24°18' E 118°32'24 4.9
2015-Jan-14 10:24N 24°39' E 118°47'4 5.3
2015-Jan-14 09:33N 24°42' E 118°50'5 5.2
2015-Jan-14 08:33N 24°45' E 118°54'5 4.8
2015-Jan-14 07:33N 24°49' E 118°58'4 4.2
2015-Jan-14 06:33N 24°52' E 119°01'4 3.7
2015-Jan-14 05:33N 24°55' E 119°03'3 3.4
2015-Jan-14 04:33N 24°59' E 119°03'3 3.0
2015-Jan-14 03:33N 25°02' E 119°03'4 3.8
2015-Jan-14 02:33N 25°05' E 119°01'5 4.5
2015-Jan-14 01:33N 25°10' E 119°00'2 2.4
2015-Jan-14 00:33N 25°12' E 119°01'0 0.1
2015-Jan-13 23:33N 25°12' E 119°01'0 0.0
2015-Jan-13 22:31N 25°12' E 119°01'0 0.0
2015-Jan-13 21:32N 25°12' E 119°01'0 0.0
2015-Jan-13 20:33N 25°12' E 119°01'0 0.0
2015-Jan-13 19:33N 25°12' E 119°01'0 0.0
2015-Jan-13 18:31N 25°12' E 119°01'0 0.0
2015-Jan-13 17:32N 25°12' E 119°01'0 0.0
2015-Jan-13 16:33N 25°12' E 119°01'0 0.0
2015-Jan-13 15:33N 25°12' E 119°01'0 0.1
2015-Jan-13 14:33N 25°12' E 119°01'0 0.1
2015-Jan-13 13:32N 25°12' E 119°01'0 0.1
2015-Jan-13 12:30N 25°12' E 119°01'0 0.0
2015-Jan-13 11:33N 25°12' E 119°01'0 0.0
2015-Jan-13 10:33N 25°12' E 119°01'0 0.0
2015-Jan-13 09:33N 25°12' E 119°01'0 0.0
2015-Jan-13 08:33N 25°12' E 119°01'0 0.0
2015-Jan-13 07:33N 25°12' E 119°01'0 0.0
2015-Jan-13 06:33N 25°12' E 119°01'0 0.0
2015-Jan-13 05:32N 25°12' E 119°01'0 0.0
2015-Jan-13 04:30N 25°12' E 119°01'0 0.0
2015-Jan-13 03:30N 25°12' E 119°01'0 0.1
2015-Jan-13 02:30N 25°12' E 119°01'0 0.0
2015-Jan-13 01:30N 25°12' E 119°01'0 0.2
2015-Jan-13 00:34N 25°12' E 119°01'0 0.1
2015-Jan-12 23:33N 25°12' E 119°01'0 0.0
2015-Jan-12 22:33N 25°12' E 119°01'0 0.0
2015-Jan-12 21:33N 25°12' E 119°01'0 0.0
2015-Jan-12 20:33N 25°12' E 119°01'0 0.0
2015-Jan-12 19:33N 25°12' E 119°01'0 0.1
2015-Jan-12 18:33N 25°12' E 119°01'0 0.0
2015-Jan-12 17:33N 25°12' E 119°01'0 0.0
2015-Jan-12 16:33N 25°12' E 119°01'0 0.0
2015-Jan-12 15:33N 25°12' E 119°01'0 0.0
2015-Jan-12 14:33N 25°12' E 119°01'0 0.0
2015-Jan-12 13:33N 25°12' E 119°01'0 0.0
2015-Jan-12 12:33N 25°12' E 119°01'0 0.0
2015-Jan-12 11:33N 25°12' E 119°01'0 0.0
2015-Jan-12 10:33N 25°12' E 119°01'0 0.0
2015-Jan-12 09:33N 25°12' E 119°01'0 0.0
2015-Jan-12 08:33N 25°12' E 119°01'0 0.0
2015-Jan-12 07:33N 25°12' E 119°01'0 0.0
2015-Jan-12 06:33N 25°12' E 119°01'0 0.0
2015-Jan-12 05:27N 25°12' E 119°01'0 0.0
2015-Jan-12 04:27N 25°12' E 119°01'0 0.0
2015-Jan-12 03:33N 25°12' E 119°01'0 0.0
2015-Jan-12 02:33N 25°12' E 119°01'0 0.0
2015-Jan-12 01:33N 25°12' E 119°01'0 0.0
2015-Jan-12 00:27N 25°12' E 119°01'0 0.0
2015-Jan-11 23:33N 25°12' E 119°01'0 0.0
2015-Jan-11 22:33N 25°12' E 119°01'0 0.0
2015-Jan-11 21:33N 25°12' E 119°01'0 0.0
2015-Jan-11 20:33N 25°12' E 119°01'0 0.0
2015-Jan-11 19:15N 25°12' E 119°01'0 0.0
2015-Jan-11 18:33N 25°12' E 119°01'0 0.1
2015-Jan-11 17:33N 25°12' E 119°01'0 0.0
2015-Jan-11 15:26N 25°12' E 119°01'0 0.0
2015-Jan-11 14:33N 25°12' E 119°01'0 0.0
2015-Jan-11 13:33N 25°12' E 119°01'0 0.0
2015-Jan-11 12:33N 25°12' E 119°01'0 0.0
2015-Jan-11 11:26N 25°12' E 119°01'0 0.0
2015-Jan-11 10:32N 25°12' E 119°01'0 0.0
2015-Jan-11 09:32N 25°12' E 119°01'0 0.0
2015-Jan-11 08:32N 25°12' E 119°01'0 0.0
2015-Jan-11 07:32N 25°12' E 119°01'0 0.1
2015-Jan-11 06:32N 25°12' E 119°01'0 0.0
2015-Jan-11 05:32N 25°12' E 119°01'0 0.0
2015-Jan-11 04:32N 25°12' E 119°01'0 0.1
2015-Jan-11 03:32N 25°12' E 119°01'0 0.0
2015-Jan-11 02:32N 25°12' E 119°01'0 0.0
2015-Jan-11 01:32N 25°12' E 119°01'0 0.0
2015-Jan-11 00:26N 25°12' E 119°01'0 0.0
2015-Jan-10 23:32N 25°12' E 119°01'0 0.0
2015-Jan-10 22:32N 25°12' E 119°01'0 0.0
2015-Jan-10 21:26N 25°12' E 119°01'0 0.0
2015-Jan-10 20:32N 25°12' E 119°01'0 0.0
2015-Jan-10 19:32N 25°12' E 119°01'0 0.0
2015-Jan-10 18:26N 25°12' E 119°01'0 0.0
2015-Jan-10 17:32N 25°12' E 119°01'0 0.0
2015-Jan-10 16:32N 25°12' E 119°01'0 0.0
2015-Jan-10 15:32N 25°12' E 119°01'0 0.0
2015-Jan-10 14:32N 25°12' E 119°01'0 0.0
2015-Jan-10 13:32N 25°12' E 119°01'0 0.0
2015-Jan-10 12:32N 25°12' E 119°01'0 0.0
2015-Jan-10 11:26N 25°12' E 119°01'0 0.0
2015-Jan-10 10:32N 25°12' E 119°01'0 0.0
2015-Jan-10 09:32N 25°12' E 119°01'0 0.0
2015-Jan-10 08:32N 25°12' E 119°01'0 0.0
2015-Jan-10 07:32N 25°12' E 119°01'0 0.0
2015-Jan-10 06:32N 25°12' E 119°01'0 0.1
2015-Jan-10 05:32N 25°12' E 119°01'0 0.0
2015-Jan-10 04:20N 25°12' E 119°01'0 0.0
2015-Jan-10 03:32N 25°12' E 119°01'0 0.1
2015-Jan-10 02:32N 25°12' E 119°01'0 0.0
2015-Jan-10 01:32N 25°12' E 119°01'0 0.0
2015-Jan-10 00:31N 25°12' E 119°01'0 0.0
2015-Jan-09 23:31N 25°12' E 119°01'0 0.0
2015-Jan-09 22:31N 25°12' E 119°01'0 0.0
2015-Jan-09 21:31N 25°12' E 119°01'0 0.0
2015-Jan-09 20:31N 25°12' E 119°01'0 0.0
2015-Jan-09 19:31N 25°12' E 119°01'0 0.1
2015-Jan-09 18:31N 25°12' E 119°01'0 0.0
2015-Jan-09 17:31N 25°12' E 119°01'0 0.0
2015-Jan-09 16:31N 25°12' E 119°01'0 0.0
2015-Jan-09 15:31N 25°12' E 119°01'0 0.1
2015-Jan-09 14:31N 25°12' E 119°01'0 0.0
2015-Jan-09 13:31N 25°12' E 119°01'0 0.0
2015-Jan-09 12:31N 25°12' E 119°01'0 0.0
2015-Jan-09 11:31N 25°12' E 119°01'0 0.0
2015-Jan-09 10:31N 25°12' E 119°01'0 0.0
2015-Jan-09 09:31N 25°12' E 119°01'  
Track history (hours):
 
Tides and Currents Weather Stations Pressure Air Temp Water Temp Dewpoint Dewpoint Depression Visibility Wind Speed Wind Dir Waves Ship Positions

De Sui

Last reported at 2015-Jan-19 08:33 UTC. Time now 2015-Jan-31 13:09 UTC.
Position N 22°06' E 113°49'.
Warning: this ship's position is 12 days out of date.

Length 65 m; draft 5 m.

Type: Tug. MMSI: 413070000.

Date/timePositionNaut miles runAvg speedWind from/ knotsBaromVisibWave heightAir tempDewpointWater temp
2015-Jan-19 08:33N 22°06' E 113°49'3 2.7
2015-Jan-19 07:33N 22°08' E 113°47'0 0.1
2015-Jan-19 06:32N 22°08' E 113°47'1 1.2
2015-Jan-19 05:32N 22°08' E 113°49'0 0.1
2015-Jan-19 04:33N 22°08' E 113°49'0 0.0
2015-Jan-19 03:33N 22°08' E 113°49'0 0.0
2015-Jan-19 02:34N 22°08' E 113°49'1 1.1
2015-Jan-19 01:30N 22°08' E 113°47'1 0.1
2015-Jan-18 16:33N 22°08' E 113°49'0 0.0
2015-Jan-18 15:33N 22°08' E 113°49'0 0.0
2015-Jan-18 14:33N 22°08' E 113°49'0 0.0
2015-Jan-18 13:33N 22°08' E 113°49'0 0.0
2015-Jan-18 12:32N 22°08' E 113°49'0 0.0
2015-Jan-18 11:32N 22°08' E 113°49'0 0.0
2015-Jan-18 10:32N 22°08' E 113°49'0 0.1
2015-Jan-18 09:33N 22°08' E 113°49'0 0.1
2015-Jan-18 08:33N 22°08' E 113°49'0 0.0
2015-Jan-18 07:30N 22°08' E 113°49'0 0.1
2015-Jan-18 06:33N 22°08' E 113°49'0 0.1
2015-Jan-18 05:33N 22°08' E 113°49'0 0.0
2015-Jan-18 04:33N 22°08' E 113°49'0 0.0
2015-Jan-18 03:33N 22°08' E 113°49'0 0.0
2015-Jan-18 02:33N 22°08' E 113°49'0 0.0
2015-Jan-18 01:32N 22°08' E 113°49'1 1.1
2015-Jan-18 00:33N 22°08' E 113°47'3 3.3
2015-Jan-17 23:32N 22°05' E 113°50'3 2.8
2015-Jan-17 22:33N 22°03' E 113°51'3 2.5
2015-Jan-17 21:18N 21°59' E 113°51'1 1.8
2015-Jan-17 20:33N 21°58' E 113°51'167 3.3
2015-Jan-15 18:33N 22°57' E 116°41'5 5.1
2015-Jan-15 17:33N 22°59' E 116°45'6 5.3
2015-Jan-15 16:29N 23°02' E 116°51'5 5.5
2015-Jan-15 15:30N 23°04' E 116°56'47 4.6
2015-Jan-15 05:23N 23°29' E 117°40'4 5.1
2015-Jan-15 04:30N 23°32' E 117°43'5 5.6
2015-Jan-15 03:33N 23°36' E 117°46'6 5.7
2015-Jan-15 02:33N 23°41' E 117°50'6 5.5
2015-Jan-15 01:32N 23°45' E 117°54'5 5.3
2015-Jan-15 00:33N 23°49' E 117°57'6 5.8
2015-Jan-14 23:33N 23°54' E 118°02'6 5.6
2015-Jan-14 22:33N 23°58' E 118°06'5 5.2
2015-Jan-14 21:33N 24°01' E 118°10'5 4.8
2015-Jan-14 20:33N 24°05' E 118°14'5 4.6
2015-Jan-14 19:33N 24°07' E 118°18'4 4.4
2015-Jan-14 18:33N 24°10' E 118°22'4 3.9
2015-Jan-14 17:32N 24°13' E 118°25'5 3.9
2015-Jan-14 16:21N 24°16' E 118°28'4 4.2
2015-Jan-14 15:24N 24°18' E 118°32'24 4.9
2015-Jan-14 10:24N 24°39' E 118°47'4 5.3
2015-Jan-14 09:33N 24°42' E 118°50'5 5.2
2015-Jan-14 08:33N 24°45' E 118°54'5 4.8
2015-Jan-14 07:33N 24°49' E 118°58'4 4.2
2015-Jan-14 06:33N 24°52' E 119°01'4 3.7
2015-Jan-14 05:33N 24°55' E 119°03'3 3.4
2015-Jan-14 04:33N 24°59' E 119°03'3 3.0
2015-Jan-14 03:33N 25°02' E 119°03'4 3.8
2015-Jan-14 02:33N 25°05' E 119°01'5 4.5
2015-Jan-14 01:33N 25°10' E 119°00'2 2.4
2015-Jan-14 00:33N 25°12' E 119°01'0 0.1
2015-Jan-13 23:33N 25°12' E 119°01'0 0.0
2015-Jan-13 22:31N 25°12' E 119°01'0 0.0
2015-Jan-13 21:32N 25°12' E 119°01'0 0.0
2015-Jan-13 20:33N 25°12' E 119°01'0 0.0
2015-Jan-13 19:33N 25°12' E 119°01'0 0.0
2015-Jan-13 18:31N 25°12' E 119°01'0 0.0
2015-Jan-13 17:32N 25°12' E 119°01'0 0.0
2015-Jan-13 16:33N 25°12' E 119°01'0 0.0
2015-Jan-13 15:33N 25°12' E 119°01'0 0.1
2015-Jan-13 14:33N 25°12' E 119°01'0 0.1
2015-Jan-13 13:32N 25°12' E 119°01'0 0.1
2015-Jan-13 12:30N 25°12' E 119°01'0 0.0
2015-Jan-13 11:33N 25°12' E 119°01'0 0.0
2015-Jan-13 10:33N 25°12' E 119°01'0 0.0
2015-Jan-13 09:33N 25°12' E 119°01'0 0.0
2015-Jan-13 08:33N 25°12' E 119°01'0 0.0
2015-Jan-13 07:33N 25°12' E 119°01'0 0.0
2015-Jan-13 06:33N 25°12' E 119°01'0 0.0
2015-Jan-13 05:32N 25°12' E 119°01'0 0.0
2015-Jan-13 04:30N 25°12' E 119°01'0 0.0
2015-Jan-13 03:30N 25°12' E 119°01'0 0.1
2015-Jan-13 02:30N 25°12' E 119°01'0 0.0
2015-Jan-13 01:30N 25°12' E 119°01'0 0.2
2015-Jan-13 00:34N 25°12' E 119°01'0 0.1
2015-Jan-12 23:33N 25°12' E 119°01'0 0.0
2015-Jan-12 22:33N 25°12' E 119°01'0 0.0
2015-Jan-12 21:33N 25°12' E 119°01'0 0.0
2015-Jan-12 20:33N 25°12' E 119°01'0 0.0
2015-Jan-12 19:33N 25°12' E 119°01'0 0.1
2015-Jan-12 18:33N 25°12' E 119°01'0 0.0
2015-Jan-12 17:33N 25°12' E 119°01'0 0.0
2015-Jan-12 16:33N 25°12' E 119°01'0 0.0
2015-Jan-12 15:33N 25°12' E 119°01'0 0.0
2015-Jan-12 14:33N 25°12' E 119°01'0 0.0
2015-Jan-12 13:33N 25°12' E 119°01'0 0.0
2015-Jan-12 12:33N 25°12' E 119°01'0 0.0
2015-Jan-12 11:33N 25°12' E 119°01'0 0.0
2015-Jan-12 10:33N 25°12' E 119°01'0 0.0
2015-Jan-12 09:33N 25°12' E 119°01'0 0.0
2015-Jan-12 08:33N 25°12' E 119°01'0 0.0
2015-Jan-12 07:33N 25°12' E 119°01'0 0.0
2015-Jan-12 06:33N 25°12' E 119°01'0 0.0
2015-Jan-12 05:27N 25°12' E 119°01'0 0.0
2015-Jan-12 04:27N 25°12' E 119°01'0 0.0
2015-Jan-12 03:33N 25°12' E 119°01'0 0.0
2015-Jan-12 02:33N 25°12' E 119°01'0 0.0
2015-Jan-12 01:33N 25°12' E 119°01'0 0.0
2015-Jan-12 00:27N 25°12' E 119°01'0 0.0
2015-Jan-11 23:33N 25°12' E 119°01'0 0.0
2015-Jan-11 22:33N 25°12' E 119°01'0 0.0
2015-Jan-11 21:33N 25°12' E 119°01'0 0.0
2015-Jan-11 20:33N 25°12' E 119°01'0 0.0
2015-Jan-11 19:15N 25°12' E 119°01'0 0.0
2015-Jan-11 18:33N 25°12' E 119°01'0 0.1
2015-Jan-11 17:33N 25°12' E 119°01'0 0.0
2015-Jan-11 15:26N 25°12' E 119°01'0 0.0
2015-Jan-11 14:33N 25°12' E 119°01'0 0.0
2015-Jan-11 13:33N 25°12' E 119°01'0 0.0
2015-Jan-11 12:33N 25°12' E 119°01'0 0.0
2015-Jan-11 11:26N 25°12' E 119°01'0 0.0
2015-Jan-11 10:32N 25°12' E 119°01'0 0.0
2015-Jan-11 09:32N 25°12' E 119°01'0 0.0
2015-Jan-11 08:32N 25°12' E 119°01'0 0.0
2015-Jan-11 07:32N 25°12' E 119°01'0 0.1
2015-Jan-11 06:32N 25°12' E 119°01'0 0.0
2015-Jan-11 05:32N 25°12' E 119°01'0 0.0
2015-Jan-11 04:32N 25°12' E 119°01'0 0.1
2015-Jan-11 03:32N 25°12' E 119°01'0 0.0
2015-Jan-11 02:32N 25°12' E 119°01'0 0.0
2015-Jan-11 01:32N 25°12' E 119°01'0 0.0
2015-Jan-11 00:26N 25°12' E 119°01'0 0.0
2015-Jan-10 23:32N 25°12' E 119°01'0 0.0
2015-Jan-10 22:32N 25°12' E 119°01'0 0.0
2015-Jan-10 21:26N 25°12' E 119°01'0 0.0
2015-Jan-10 20:32N 25°12' E 119°01'0 0.0
2015-Jan-10 19:32N 25°12' E 119°01'0 0.0
2015-Jan-10 18:26N 25°12' E 119°01'0 0.0
2015-Jan-10 17:32N 25°12' E 119°01'0 0.0
2015-Jan-10 16:32N 25°12' E 119°01'0 0.0
2015-Jan-10 15:32N 25°12' E 119°01'0 0.0
2015-Jan-10 14:32N 25°12' E 119°01'0 0.0
2015-Jan-10 13:32N 25°12' E 119°01'0 0.0
2015-Jan-10 12:32N 25°12' E 119°01'0 0.0
2015-Jan-10 11:26N 25°12' E 119°01'0 0.0
2015-Jan-10 10:32N 25°12' E 119°01'0 0.0
2015-Jan-10 09:32N 25°12' E 119°01'0 0.0
2015-Jan-10 08:32N 25°12' E 119°01'0 0.0
2015-Jan-10 07:32N 25°12' E 119°01'0 0.0
2015-Jan-10 06:32N 25°12' E 119°01'0 0.1
2015-Jan-10 05:32N 25°12' E 119°01'0 0.0
2015-Jan-10 04:20N 25°12' E 119°01'0 0.0
2015-Jan-10 03:32N 25°12' E 119°01'0 0.1
2015-Jan-10 02:32N 25°12' E 119°01'0 0.0
2015-Jan-10 01:32N 25°12' E 119°01'0 0.0
2015-Jan-10 00:31N 25°12' E 119°01'0 0.0
2015-Jan-09 23:31N 25°12' E 119°01'0 0.0
2015-Jan-09 22:31N 25°12' E 119°01'0 0.0
2015-Jan-09 21:31N 25°12' E 119°01'0 0.0
2015-Jan-09 20:31N 25°12' E 119°01'0 0.0
2015-Jan-09 19:31N 25°12' E 119°01'0 0.1
2015-Jan-09 18:31N 25°12' E 119°01'0 0.0
2015-Jan-09 17:31N 25°12' E 119°01'0 0.0
2015-Jan-09 16:31N 25°12' E 119°01'0 0.0
2015-Jan-09 15:31N 25°12' E 119°01'0 0.1
2015-Jan-09 14:31N 25°12' E 119°01'0 0.0
2015-Jan-09 13:31N 25°12' E 119°01'0 0.0
2015-Jan-09 12:31N 25°12' E 119°01'0 0.0
2015-Jan-09 11:31N 25°12' E 119°01'0 0.0
2015-Jan-09 10:31N 25°12' E 119°01'0 0.0
2015-Jan-09 09:31N 25°12' E 119°01'  

Dump ship's entire track history